sensor_id;sensor_type;location;lat;lon;timestamp;temperature;humidity
43991;DHT22;29654;50.784;20.604;2022-09-09T00:04:57;23.80;54.30
43991;DHT22;29654;50.784;20.604;2022-09-09T00:10:14;23.90;55.20
43991;DHT22;29654;50.784;20.604;2022-09-09T00:15:22;24.00;55.00
43991;DHT22;29654;50.784;20.604;2022-09-09T00:20:32;24.00;54.50
43991;DHT22;29654;50.784;20.604;2022-09-09T00:25:44;24.00;54.80
43991;DHT22;29654;50.784;20.604;2022-09-09T00:30:52;24.10;55.10
43991;DHT22;29654;50.784;20.604;2022-09-09T00:35:58;24.10;54.40
43991;DHT22;29654;50.784;20.604;2022-09-09T00:41:07;24.20;54.70
43991;DHT22;29654;50.784;20.604;2022-09-09T00:52:07;24.30;55.50
43991;DHT22;29654;50.784;20.604;2022-09-09T00:57:26;24.30;55.10
43991;DHT22;29654;50.784;20.604;2022-09-09T01:02:38;24.30;55.00
43991;DHT22;29654;50.784;20.604;2022-09-09T01:07:48;24.30;55.00
43991;DHT22;29654;50.784;20.604;2022-09-09T01:12:54;24.30;54.70
43991;DHT22;29654;50.784;20.604;2022-09-09T01:18:02;24.40;54.60
43991;DHT22;29654;50.784;20.604;2022-09-09T01:23:32;24.40;54.60
43991;DHT22;29654;50.784;20.604;2022-09-09T01:28:51;24.40;55.30
43991;DHT22;29654;50.784;20.604;2022-09-09T01:34:00;24.40;54.50
43991;DHT22;29654;50.784;20.604;2022-09-09T01:39:03;24.40;54.30
43991;DHT22;29654;50.784;20.604;2022-09-09T01:44:10;24.40;54.40
43991;DHT22;29654;50.784;20.604;2022-09-09T01:49:16;24.50;54.80
43991;DHT22;29654;50.784;20.604;2022-09-09T01:54:23;24.40;54.40
43991;DHT22;29654;50.784;20.604;2022-09-09T01:59:45;24.50;54.60
43991;DHT22;29654;50.784;20.604;2022-09-09T02:05:09;24.50;55.40
43991;DHT22;29654;50.784;20.604;2022-09-09T02:10:20;24.50;55.00
43991;DHT22;29654;50.784;20.604;2022-09-09T02:15:42;24.50;54.60
43991;DHT22;29654;50.784;20.604;2022-09-09T02:20:48;24.50;55.00
43991;DHT22;29654;50.784;20.604;2022-09-09T02:25:53;24.50;54.50
43991;DHT22;29654;50.784;20.604;2022-09-09T02:31:01;24.40;54.70
43991;DHT22;29654;50.784;20.604;2022-09-09T02:36:12;24.40;54.80
43991;DHT22;29654;50.784;20.604;2022-09-09T02:41:19;24.40;54.70
43991;DHT22;29654;50.784;20.604;2022-09-09T02:46:36;24.40;54.80
43991;DHT22;29654;50.784;20.604;2022-09-09T02:52:05;24.30;55.50
43991;DHT22;29654;50.784;20.604;2022-09-09T02:57:13;24.30;55.10
43991;DHT22;29654;50.784;20.604;2022-09-09T03:02:23;24.20;55.00
43991;DHT22;29654;50.784;20.604;2022-09-09T03:07:32;24.20;55.10
43991;DHT22;29654;50.784;20.604;2022-09-09T03:12:36;24.10;55.60
43991;DHT22;29654;50.784;20.604;2022-09-09T03:17:41;24.00;55.00
43991;DHT22;29654;50.784;20.604;2022-09-09T03:22:44;24.00;55.20
43991;DHT22;29654;50.784;20.604;2022-09-09T03:27:48;24.00;55.20
43991;DHT22;29654;50.784;20.604;2022-09-09T03:32:52;24.00;55.20
43991;DHT22;29654;50.784;20.604;2022-09-09T03:37:57;24.00;55.40
43991;DHT22;29654;50.784;20.604;2022-09-09T03:43:04;24.00;55.20
43991;DHT22;29654;50.784;20.604;2022-09-09T03:48:09;23.90;55.10
43991;DHT22;29654;50.784;20.604;2022-09-09T03:53:14;23.90;55.20
43991;DHT22;29654;50.784;20.604;2022-09-09T03:58:18;23.80;55.20
43991;DHT22;29654;50.784;20.604;2022-09-09T04:03:24;23.80;55.40
43991;DHT22;29654;50.784;20.604;2022-09-09T04:08:27;23.70;55.70
43991;DHT22;29654;50.784;20.604;2022-09-09T04:13:33;23.50;55.60
43991;DHT22;29654;50.784;20.604;2022-09-09T04:18:38;23.30;55.80
43991;DHT22;29654;50.784;20.604;2022-09-09T04:23:42;23.20;56.20
43991;DHT22;29654;50.784;20.604;2022-09-09T04:28:45;23.10;56.30
43991;DHT22;29654;50.784;20.604;2022-09-09T04:33:53;23.00;56.40
43991;DHT22;29654;50.784;20.604;2022-09-09T04:38:56;22.90;56.70
43991;DHT22;29654;50.784;20.604;2022-09-09T04:44:00;22.80;56.60
43991;DHT22;29654;50.784;20.604;2022-09-09T04:49:06;22.90;56.70
43991;DHT22;29654;50.784;20.604;2022-09-09T04:54:09;22.80;56.80
43991;DHT22;29654;50.784;20.604;2022-09-09T04:59:14;22.80;56.70
43991;DHT22;29654;50.784;20.604;2022-09-09T05:04:22;22.80;56.60
43991;DHT22;29654;50.784;20.604;2022-09-09T05:09:25;22.80;57.00
43991;DHT22;29654;50.784;20.604;2022-09-09T05:14:29;22.90;56.80
43991;DHT22;29654;50.784;20.604;2022-09-09T05:19:36;22.80;56.80
43991;DHT22;29654;50.784;20.604;2022-09-09T05:24:39;22.80;57.00
43991;DHT22;29654;50.784;20.604;2022-09-09T05:29:42;22.80;56.90
43991;DHT22;29654;50.784;20.604;2022-09-09T05:34:47;22.90;57.00
43991;DHT22;29654;50.784;20.604;2022-09-09T05:39:51;23.00;57.00
43991;DHT22;29654;50.784;20.604;2022-09-09T05:44:54;23.00;56.70
43991;DHT22;29654;50.784;20.604;2022-09-09T05:50:00;23.10;56.60
43991;DHT22;29654;50.784;20.604;2022-09-09T05:55:04;23.10;56.60
43991;DHT22;29654;50.784;20.604;2022-09-09T06:00:09;23.20;56.70
43991;DHT22;29654;50.784;20.604;2022-09-09T06:05:19;23.20;56.50
43991;DHT22;29654;50.784;20.604;2022-09-09T06:10:24;23.30;56.60
43991;DHT22;29654;50.784;20.604;2022-09-09T06:15:27;23.30;56.70
43991;DHT22;29654;50.784;20.604;2022-09-09T06:20:33;23.40;56.60
43991;DHT22;29654;50.784;20.604;2022-09-09T06:25:35;23.50;56.70
43991;DHT22;29654;50.784;20.604;2022-09-09T06:30:42;23.50;56.70
43991;DHT22;29654;50.784;20.604;2022-09-09T06:35:53;23.50;56.70
43991;DHT22;29654;50.784;20.604;2022-09-09T06:40:59;23.60;57.00
43991;DHT22;29654;50.784;20.604;2022-09-09T06:46:05;23.60;56.80
43991;DHT22;29654;50.784;20.604;2022-09-09T06:51:14;23.60;57.00
43991;DHT22;29654;50.784;20.604;2022-09-09T06:56:20;23.60;57.20
43991;DHT22;29654;50.784;20.604;2022-09-09T07:01:27;23.60;57.00
43991;DHT22;29654;50.784;20.604;2022-09-09T07:06:37;23.70;57.20
43991;DHT22;29654;50.784;20.604;2022-09-09T07:11:45;23.80;57.30
43991;DHT22;29654;50.784;20.604;2022-09-09T07:16:49;23.90;57.00
43991;DHT22;29654;50.784;20.604;2022-09-09T07:21:54;24.00;56.80
43991;DHT22;29654;50.784;20.604;2022-09-09T07:26:59;24.00;56.80
43991;DHT22;29654;50.784;20.604;2022-09-09T07:32:02;24.20;56.80
43991;DHT22;29654;50.784;20.604;2022-09-09T07:37:10;24.30;56.40
43991;DHT22;29654;50.784;20.604;2022-09-09T07:42:17;24.30;56.20
43991;DHT22;29654;50.784;20.604;2022-09-09T07:47:20;24.30;56.20
43991;DHT22;29654;50.784;20.604;2022-09-09T07:52:27;24.50;56.30
43991;DHT22;29654;50.784;20.604;2022-09-09T07:57:34;24.50;56.00
43991;DHT22;29654;50.784;20.604;2022-09-09T08:02:37;24.60;56.00
43991;DHT22;29654;50.784;20.604;2022-09-09T08:07:42;24.70;55.90
43991;DHT22;29654;50.784;20.604;2022-09-09T08:12:45;24.70;55.20
43991;DHT22;29654;50.784;20.604;2022-09-09T08:17:48;24.70;55.20
43991;DHT22;29654;50.784;20.604;2022-09-09T08:22:52;24.70;55.20
43991;DHT22;29654;50.784;20.604;2022-09-09T08:27:55;24.70;55.10
43991;DHT22;29654;50.784;20.604;2022-09-09T08:32:58;24.80;54.70
43991;DHT22;29654;50.784;20.604;2022-09-09T08:38:02;24.90;54.30
43991;DHT22;29654;50.784;20.604;2022-09-09T08:43:06;25.00;54.50
43991;DHT22;29654;50.784;20.604;2022-09-09T08:48:21;25.10;54.30
43991;DHT22;29654;50.784;20.604;2022-09-09T08:53:39;25.20;53.70
43991;DHT22;29654;50.784;20.604;2022-09-09T08:58:47;25.30;53.60
43991;DHT22;29654;50.784;20.604;2022-09-09T09:03:59;25.30;53.50
43991;DHT22;29654;50.784;20.604;2022-09-09T09:09:11;25.40;53.00
43991;DHT22;29654;50.784;20.604;2022-09-09T09:14:22;25.50;53.10
43991;DHT22;29654;50.784;20.604;2022-09-09T09:19:32;25.60;53.10
43991;DHT22;29654;50.784;20.604;2022-09-09T09:24:45;25.60;52.50
43991;DHT22;29654;50.784;20.604;2022-09-09T09:29:55;25.90;52.30
43991;DHT22;29654;50.784;20.604;2022-09-09T09:35:02;25.90;52.40
43991;DHT22;29654;50.784;20.604;2022-09-09T09:40:13;26.00;51.80
43991;DHT22;29654;50.784;20.604;2022-09-09T09:45:27;26.10;52.00
43991;DHT22;29654;50.784;20.604;2022-09-09T09:50:33;26.20;51.50
43991;DHT22;29654;50.784;20.604;2022-09-09T09:55:48;26.30;51.70
43991;DHT22;29654;50.784;20.604;2022-09-09T10:00:57;26.40;51.10
43991;DHT22;29654;50.784;20.604;2022-09-09T10:06:03;26.50;51.20
43991;DHT22;29654;50.784;20.604;2022-09-09T10:11:24;26.50;50.40
43991;DHT22;29654;50.784;20.604;2022-09-09T10:16:41;26.60;50.50
43991;DHT22;29654;50.784;20.604;2022-09-09T10:22:08;26.70;49.80
43991;DHT22;29654;50.784;20.604;2022-09-09T10:27:23;26.90;49.80
43991;DHT22;29654;50.784;20.604;2022-09-09T10:32:37;27.00;49.70
43991;DHT22;29654;50.784;20.604;2022-09-09T10:43:35;27.30;49.40
43991;DHT22;29654;50.784;20.604;2022-09-09T10:48:58;27.50;48.10
43991;DHT22;29654;50.784;20.604;2022-09-09T10:54:19;27.70;48.20
43991;DHT22;29654;50.784;20.604;2022-09-09T10:59:33;27.90;47.40
43991;DHT22;29654;50.784;20.604;2022-09-09T11:04:42;28.00;47.60
43991;DHT22;29654;50.784;20.604;2022-09-09T11:09:53;28.10;47.50
43991;DHT22;29654;50.784;20.604;2022-09-09T11:15:06;28.30;47.20
43991;DHT22;29654;50.784;20.604;2022-09-09T11:20:17;28.40;46.90
43991;DHT22;29654;50.784;20.604;2022-09-09T11:25:23;28.50;48.10
43991;DHT22;29654;50.784;20.604;2022-09-09T11:30:35;28.80;47.60
43991;DHT22;29654;50.784;20.604;2022-09-09T11:35:55;29.10;46.00
43991;DHT22;29654;50.784;20.604;2022-09-09T11:41:06;29.30;46.00
43991;DHT22;29654;50.784;20.604;2022-09-09T11:46:14;29.50;46.00
43991;DHT22;29654;50.784;20.604;2022-09-09T11:51:27;29.60;45.00
43991;DHT22;29654;50.784;20.604;2022-09-09T11:56:32;29.70;43.60
43991;DHT22;29654;50.784;20.604;2022-09-09T12:01:40;29.60;44.70
43991;DHT22;29654;50.784;20.604;2022-09-09T12:06:45;29.60;44.20
43991;DHT22;29654;50.784;20.604;2022-09-09T12:11:49;29.70;44.40
43991;DHT22;29654;50.784;20.604;2022-09-09T12:16:53;29.60;43.00
43991;DHT22;29654;50.784;20.604;2022-09-09T12:22:00;29.50;42.50
43991;DHT22;29654;50.784;20.604;2022-09-09T12:27:12;29.30;42.50
43991;DHT22;29654;50.784;20.604;2022-09-09T12:32:23;29.10;42.50
43991;DHT22;29654;50.784;20.604;2022-09-09T12:37:30;29.00;43.10
43991;DHT22;29654;50.784;20.604;2022-09-09T12:42:39;28.90;42.90
43991;DHT22;29654;50.784;20.604;2022-09-09T12:47:46;28.80;42.90
43991;DHT22;29654;50.784;20.604;2022-09-09T12:52:52;28.60;43.10
43991;DHT22;29654;50.784;20.604;2022-09-09T12:57:58;28.60;43.50
43991;DHT22;29654;50.784;20.604;2022-09-09T13:03:14;28.50;43.50
43991;DHT22;29654;50.784;20.604;2022-09-09T13:08:19;28.50;43.40
43991;DHT22;29654;50.784;20.604;2022-09-09T13:13:25;28.40;43.30
43991;DHT22;29654;50.784;20.604;2022-09-09T13:18:34;28.50;43.50
43991;DHT22;29654;50.784;20.604;2022-09-09T13:23:39;28.50;43.60
43991;DHT22;29654;50.784;20.604;2022-09-09T13:28:42;28.60;43.60
43991;DHT22;29654;50.784;20.604;2022-09-09T13:33:48;28.70;43.30
43991;DHT22;29654;50.784;20.604;2022-09-09T13:38:56;28.70;42.80
43991;DHT22;29654;50.784;20.604;2022-09-09T13:44:00;28.80;42.70
43991;DHT22;29654;50.784;20.604;2022-09-09T13:49:21;28.80;43.60
43991;DHT22;29654;50.784;20.604;2022-09-09T13:54:24;28.90;41.80
43991;DHT22;29654;50.784;20.604;2022-09-09T13:59:28;29.00;42.70
43991;DHT22;29654;50.784;20.604;2022-09-09T14:04:32;29.10;42.70
43991;DHT22;29654;50.784;20.604;2022-09-09T14:09:36;29.30;42.50
43991;DHT22;29654;50.784;20.604;2022-09-09T14:14:40;29.40;42.50
43991;DHT22;29654;50.784;20.604;2022-09-09T14:19:44;29.60;41.80
43991;DHT22;29654;50.784;20.604;2022-09-09T14:24:47;29.60;41.80
43991;DHT22;29654;50.784;20.604;2022-09-09T14:29:50;29.70;41.70
43991;DHT22;29654;50.784;20.604;2022-09-09T14:34:55;29.70;41.30
43991;DHT22;29654;50.784;20.604;2022-09-09T14:39:58;29.60;40.90
43991;DHT22;29654;50.784;20.604;2022-09-09T14:45:01;29.40;41.20
43991;DHT22;29654;50.784;20.604;2022-09-09T14:50:06;29.30;41.40
43991;DHT22;29654;50.784;20.604;2022-09-09T14:55:10;29.20;41.10
43991;DHT22;29654;50.784;20.604;2022-09-09T15:00:13;29.10;41.10
43991;DHT22;29654;50.784;20.604;2022-09-09T15:05:19;29.00;41.30
43991;DHT22;29654;50.784;20.604;2022-09-09T15:10:22;28.90;41.20
43991;DHT22;29654;50.784;20.604;2022-09-09T15:15:27;28.80;41.40
43991;DHT22;29654;50.784;20.604;2022-09-09T15:20:32;28.70;41.40
43991;DHT22;29654;50.784;20.604;2022-09-09T15:25:36;28.70;41.50
43991;DHT22;29654;50.784;20.604;2022-09-09T15:30:39;28.60;41.60
43991;DHT22;29654;50.784;20.604;2022-09-09T15:35:45;28.60;42.30
43991;DHT22;29654;50.784;20.604;2022-09-09T15:40:53;28.50;41.50
43991;DHT22;29654;50.784;20.604;2022-09-09T15:46:05;28.40;41.60
43991;DHT22;29654;50.784;20.604;2022-09-09T15:51:27;28.30;41.70
43991;DHT22;29654;50.784;20.604;2022-09-09T15:56:30;28.30;42.50
43991;DHT22;29654;50.784;20.604;2022-09-09T16:01:36;28.20;43.60
43991;DHT22;29654;50.784;20.604;2022-09-09T16:06:41;28.20;44.00
43991;DHT22;29654;50.784;20.604;2022-09-09T16:11:44;28.10;44.10
43991;DHT22;29654;50.784;20.604;2022-09-09T16:16:47;28.00;44.10
43991;DHT22;29654;50.784;20.604;2022-09-09T16:21:51;28.00;44.20
43991;DHT22;29654;50.784;20.604;2022-09-09T16:26:54;27.90;43.60
43991;DHT22;29654;50.784;20.604;2022-09-09T16:31:57;27.70;43.90
43991;DHT22;29654;50.784;20.604;2022-09-09T16:37:02;27.60;44.30
43991;DHT22;29654;50.784;20.604;2022-09-09T16:42:05;27.30;44.80
43991;DHT22;29654;50.784;20.604;2022-09-09T16:47:08;27.10;45.10
43991;DHT22;29654;50.784;20.604;2022-09-09T16:52:12;26.90;45.50
43991;DHT22;29654;50.784;20.604;2022-09-09T16:57:15;26.70;46.00
43991;DHT22;29654;50.784;20.604;2022-09-09T17:02:17;26.50;46.20
43991;DHT22;29654;50.784;20.604;2022-09-09T17:07:22;26.30;46.50
43991;DHT22;29654;50.784;20.604;2022-09-09T17:12:25;26.00;46.80
43991;DHT22;29654;50.784;20.604;2022-09-09T17:17:28;25.80;47.20
43991;DHT22;29654;50.784;20.604;2022-09-09T17:22:32;25.60;47.50
43991;DHT22;29654;50.784;20.604;2022-09-09T17:27:35;25.40;47.90
43991;DHT22;29654;50.784;20.604;2022-09-09T17:32:38;25.30;48.10
43991;DHT22;29654;50.784;20.604;2022-09-09T17:37:42;25.10;48.20
43991;DHT22;29654;50.784;20.604;2022-09-09T17:42:45;25.00;48.60
43991;DHT22;29654;50.784;20.604;2022-09-09T17:47:48;24.90;48.70
43991;DHT22;29654;50.784;20.604;2022-09-09T17:52:52;24.70;48.90
43991;DHT22;29654;50.784;20.604;2022-09-09T17:57:56;24.60;49.30
43991;DHT22;29654;50.784;20.604;2022-09-09T18:02:59;24.50;49.30
43991;DHT22;29654;50.784;20.604;2022-09-09T18:08:04;24.40;49.50
43991;DHT22;29654;50.784;20.604;2022-09-09T18:13:07;24.20;49.90
43991;DHT22;29654;50.784;20.604;2022-09-09T18:18:09;24.10;50.00
43991;DHT22;29654;50.784;20.604;2022-09-09T18:23:14;24.00;50.10
43991;DHT22;29654;50.784;20.604;2022-09-09T18:28:16;23.90;50.50
43991;DHT22;29654;50.784;20.604;2022-09-09T18:33:20;23.80;50.40
43991;DHT22;29654;50.784;20.604;2022-09-09T18:38:24;23.70;50.60
43991;DHT22;29654;50.784;20.604;2022-09-09T18:43:27;23.60;50.90
43991;DHT22;29654;50.784;20.604;2022-09-09T18:48:31;23.50;51.00
43991;DHT22;29654;50.784;20.604;2022-09-09T18:53:36;23.40;51.40
43991;DHT22;29654;50.784;20.604;2022-09-09T18:58:41;23.30;51.70
43991;DHT22;29654;50.784;20.604;2022-09-09T19:03:44;23.10;51.50
43991;DHT22;29654;50.784;20.604;2022-09-09T19:08:48;23.00;51.90
43991;DHT22;29654;50.784;20.604;2022-09-09T19:13:53;22.90;52.30
43991;DHT22;29654;50.784;20.604;2022-09-09T19:18:58;22.80;52.50
43991;DHT22;29654;50.784;20.604;2022-09-09T19:24:05;22.80;52.80
43991;DHT22;29654;50.784;20.604;2022-09-09T19:29:09;22.70;53.00
43991;DHT22;29654;50.784;20.604;2022-09-09T19:34:15;22.70;52.80
43991;DHT22;29654;50.784;20.604;2022-09-09T19:39:20;22.70;52.80
43991;DHT22;29654;50.784;20.604;2022-09-09T19:44:23;22.70;53.00
43991;DHT22;29654;50.784;20.604;2022-09-09T19:49:25;22.60;52.90
43991;DHT22;29654;50.784;20.604;2022-09-09T19:54:31;22.60;52.90
43991;DHT22;29654;50.784;20.604;2022-09-09T19:59:34;22.50;53.20
43991;DHT22;29654;50.784;20.604;2022-09-09T20:04:37;22.40;53.20
43991;DHT22;29654;50.784;20.604;2022-09-09T20:09:42;22.40;53.40
43991;DHT22;29654;50.784;20.604;2022-09-09T20:14:45;22.30;53.70
43991;DHT22;29654;50.784;20.604;2022-09-09T20:19:48;22.20;53.60
43991;DHT22;29654;50.784;20.604;2022-09-09T20:24:52;22.10;53.70
43991;DHT22;29654;50.784;20.604;2022-09-09T20:29:55;22.10;54.10
43991;DHT22;29654;50.784;20.604;2022-09-09T20:34:58;22.00;54.10
43991;DHT22;29654;50.784;20.604;2022-09-09T20:40:02;21.90;54.20
43991;DHT22;29654;50.784;20.604;2022-09-09T20:45:07;21.90;54.60
43991;DHT22;29654;50.784;20.604;2022-09-09T20:50:16;21.90;54.50
43991;DHT22;29654;50.784;20.604;2022-09-09T20:55:21;21.80;54.50
43991;DHT22;29654;50.784;20.604;2022-09-09T21:00:23;21.90;54.70
43991;DHT22;29654;50.784;20.604;2022-09-09T21:05:27;21.80;54.50
43991;DHT22;29654;50.784;20.604;2022-09-09T21:10:32;21.80;54.60
43991;DHT22;29654;50.784;20.604;2022-09-09T21:15:35;21.80;54.80
43991;DHT22;29654;50.784;20.604;2022-09-09T21:20:39;21.70;54.70
43991;DHT22;29654;50.784;20.604;2022-09-09T21:25:45;21.60;54.80
43991;DHT22;29654;50.784;20.604;2022-09-09T21:30:50;21.60;55.10
43991;DHT22;29654;50.784;20.604;2022-09-09T21:36:01;21.60;55.00
43991;DHT22;29654;50.784;20.604;2022-09-09T21:41:07;21.60;55.70
43991;DHT22;29654;50.784;20.604;2022-09-09T21:46:14;21.50;55.60
43991;DHT22;29654;50.784;20.604;2022-09-09T21:51:18;21.50;55.50
43991;DHT22;29654;50.784;20.604;2022-09-09T21:56:22;21.40;55.50
43991;DHT22;29654;50.784;20.604;2022-09-09T22:01:26;21.40;55.70
43991;DHT22;29654;50.784;20.604;2022-09-09T22:06:33;21.40;55.60
43991;DHT22;29654;50.784;20.604;2022-09-09T22:11:37;21.40;55.60
43991;DHT22;29654;50.784;20.604;2022-09-09T22:16:39;21.40;55.80
43991;DHT22;29654;50.784;20.604;2022-09-09T22:21:42;21.40;55.80
43991;DHT22;29654;50.784;20.604;2022-09-09T22:26:46;21.40;55.80
43991;DHT22;29654;50.784;20.604;2022-09-09T22:31:50;21.40;56.00
43991;DHT22;29654;50.784;20.604;2022-09-09T22:36:53;21.40;55.90
43991;DHT22;29654;50.784;20.604;2022-09-09T22:41:58;21.40;56.00
43991;DHT22;29654;50.784;20.604;2022-09-09T22:47:01;21.40;56.20
43991;DHT22;29654;50.784;20.604;2022-09-09T22:52:04;21.40;56.00
43991;DHT22;29654;50.784;20.604;2022-09-09T22:57:10;21.40;56.10
43991;DHT22;29654;50.784;20.604;2022-09-09T23:02:14;21.40;56.20
43991;DHT22;29654;50.784;20.604;2022-09-09T23:07:16;21.40;56.00
43991;DHT22;29654;50.784;20.604;2022-09-09T23:12:21;21.40;56.60
43991;DHT22;29654;50.784;20.604;2022-09-09T23:17:25;21.40;56.20
43991;DHT22;29654;50.784;20.604;2022-09-09T23:22:28;21.40;56.20
43991;DHT22;29654;50.784;20.604;2022-09-09T23:27:32;21.30;56.20
43991;DHT22;29654;50.784;20.604;2022-09-09T23:32:37;21.40;56.40
43991;DHT22;29654;50.784;20.604;2022-09-09T23:37:39;21.40;56.40
43991;DHT22;29654;50.784;20.604;2022-09-09T23:42:44;21.40;56.30
43991;DHT22;29654;50.784;20.604;2022-09-09T23:47:46;21.40;56.40
43991;DHT22;29654;50.784;20.604;2022-09-09T23:52:49;21.40;56.20
43991;DHT22;29654;50.784;20.604;2022-09-09T23:57:54;21.40;56.20
